createdAt,value
2022-12-17T00:02:01.280Z,35.97
2022-12-17T00:04:47.757Z,36.08
2022-12-17T00:07:33.824Z,35.65
2022-12-17T00:10:20.420Z,37.10
2022-12-17T00:13:07.043Z,33.03
2022-12-17T00:15:53.648Z,36.08
2022-12-17T00:18:40.691Z,35.88
2022-12-17T00:21:28.101Z,32.10
2022-12-17T00:24:14.253Z,33.47
2022-12-17T00:27:00.710Z,34.28
2022-12-17T00:29:46.713Z,32.22
2022-12-17T00:32:32.900Z,31.55
2022-12-17T00:35:19.208Z,32.80
2022-12-17T00:38:05.840Z,35.13
2022-12-17T00:40:52.689Z,31.23
2022-12-17T00:43:40.340Z,31.60
2022-12-17T00:46:26.418Z,31.00
2022-12-17T00:49:12.505Z,30.85
2022-12-17T00:51:58.739Z,30.17
2022-12-17T00:54:44.709Z,32.13
2022-12-17T00:57:31.175Z,31.60
2022-12-17T01:00:17.572Z,30.40
2022-12-17T01:03:04.929Z,31.90
2022-12-17T01:05:51.265Z,31.13
2022-12-17T01:08:37.304Z,32.28
2022-12-17T01:11:25.081Z,29.98
2022-12-17T01:14:11.900Z,30.88
2022-12-17T01:16:57.998Z,32.97
2022-12-17T01:19:44.409Z,31.88
2022-12-17T01:22:30.904Z,29.63
2022-12-17T01:25:19.399Z,32.28
2022-12-17T01:28:10.073Z,29.92
2022-12-17T01:30:56.388Z,30.23
2022-12-17T01:33:43.061Z,32.80
2022-12-17T01:36:29.139Z,30.50
2022-12-17T01:39:15.582Z,29.30
2022-12-17T01:42:01.994Z,28.38
2022-12-17T01:45:06.540Z,28.33
2022-12-17T01:47:56.465Z,33.08
2022-12-17T01:50:47.807Z,32.35
2022-12-17T01:53:35.373Z,27.70
2022-12-17T01:56:22.171Z,29.10
2022-12-17T01:59:08.335Z,32.20
2022-12-17T02:01:55.206Z,30.90
2022-12-17T02:04:42.597Z,32.72
2022-12-17T02:07:43.081Z,33.05
2022-12-17T02:10:36.965Z,30.95
2022-12-17T02:13:29.760Z,28.13
2022-12-17T02:16:28.666Z,30.77
2022-12-17T02:19:21.278Z,30.00
2022-12-17T02:22:10.488Z,29.48
2022-12-17T02:25:01.574Z,28.98
2022-12-17T02:27:49.411Z,29.42
2022-12-17T02:30:35.943Z,29.33
2022-12-17T02:33:22.687Z,30.63
2022-12-17T02:36:13.165Z,28.73
2022-12-17T02:38:59.371Z,30.45
2022-12-17T02:41:56.709Z,29.05
2022-12-17T02:44:43.358Z,27.13
2022-12-17T02:47:30.699Z,32.53
2022-12-17T02:50:17.075Z,33.08
2022-12-17T02:53:05.684Z,30.63
2022-12-17T02:55:52.471Z,31.38
2022-12-17T02:58:38.875Z,29.35
2022-12-17T03:01:25.358Z,29.90
2022-12-17T03:04:11.533Z,32.20
2022-12-17T03:06:57.671Z,27.80
2022-12-17T03:09:43.672Z,29.38
2022-12-17T03:12:29.773Z,27.90
2022-12-17T03:15:15.845Z,34.17
2022-12-17T03:18:02.268Z,31.58
2022-12-17T03:20:48.401Z,34.03
2022-12-17T03:23:35.024Z,31.33
2022-12-17T03:26:23.081Z,31.80
2022-12-17T03:29:09.372Z,30.98
2022-12-17T03:31:55.856Z,30.63
2022-12-17T03:34:42.344Z,32.33
2022-12-17T03:37:28.603Z,34.25
2022-12-17T03:40:14.720Z,36.22
2022-12-17T03:43:00.820Z,33.15
2022-12-17T03:45:46.797Z,32.38
2022-12-17T03:48:34.183Z,33.25
2022-12-17T03:51:20.709Z,32.58
2022-12-17T03:54:07.442Z,33.55
2022-12-17T03:56:53.979Z,31.63
2022-12-17T03:59:40.572Z,28.52
2022-12-17T04:02:34.233Z,32.47
2022-12-17T04:05:20.666Z,30.20
2022-12-17T04:08:07.423Z,33.40
2022-12-17T04:10:54.082Z,34.85
2022-12-17T04:13:41.576Z,33.00
2022-12-17T04:16:35.982Z,40.30
2022-12-17T04:19:22.052Z,33.47
2022-12-17T04:22:08.633Z,31.50
2022-12-17T04:24:54.877Z,30.35
2022-12-17T04:27:40.965Z,32.15
2022-12-17T04:30:27.688Z,33.28
2022-12-17T04:33:13.720Z,35.05
2022-12-17T04:35:59.768Z,34.72
2022-12-17T04:38:45.873Z,36.67
2022-12-17T04:41:32.028Z,34.63
2022-12-17T04:44:18.141Z,35.92
2022-12-17T04:47:04.296Z,34.92
2022-12-17T04:49:50.355Z,33.42
2022-12-17T04:52:36.839Z,32.28
2022-12-17T04:55:23.211Z,33.72
2022-12-17T04:58:09.327Z,36.15
2022-12-17T05:00:55.446Z,36.03
2022-12-17T05:03:41.850Z,37.80
2022-12-17T05:06:28.177Z,35.45
2022-12-17T05:09:14.329Z,39.88
2022-12-17T05:12:00.481Z,37.58
2022-12-17T05:14:46.622Z,37.38
2022-12-17T05:17:32.799Z,39.70
2022-12-17T05:20:19.170Z,38.08
2022-12-17T05:23:05.312Z,38.63
2022-12-17T05:25:51.441Z,34.25
2022-12-17T05:28:37.708Z,35.72
2022-12-17T05:31:23.999Z,34.97
2022-12-17T05:34:10.276Z,36.97
2022-12-17T05:36:56.433Z,36.85
2022-12-17T05:39:42.849Z,31.10
2022-12-17T05:42:28.825Z,38.53
2022-12-17T05:45:15.151Z,31.88
2022-12-17T05:48:01.293Z,33.05
2022-12-17T05:50:47.574Z,31.27
2022-12-17T05:53:34.268Z,37.80
2022-12-17T05:56:20.766Z,32.45
2022-12-17T05:59:06.858Z,31.65
2022-12-17T06:01:53.183Z,34.53
2022-12-17T06:04:39.462Z,34.88
2022-12-17T06:07:25.589Z,36.05
2022-12-17T06:10:11.724Z,33.08
2022-12-17T06:12:58.145Z,37.72
2022-12-17T06:15:44.350Z,35.08
2022-12-17T06:18:30.588Z,36.13
2022-12-17T06:21:16.793Z,34.05
2022-12-17T06:24:03.048Z,32.97
2022-12-17T06:26:49.179Z,35.50
2022-12-17T06:29:35.238Z,37.30
2022-12-17T06:32:21.730Z,34.38
2022-12-17T06:35:07.922Z,35.88
2022-12-17T06:37:54.059Z,36.25
2022-12-17T06:40:40.190Z,34.35
2022-12-17T06:43:27.765Z,29.73
2022-12-17T06:46:14.029Z,35.40
2022-12-17T06:49:00.606Z,34.78
2022-12-17T06:51:46.747Z,33.25
2022-12-17T06:54:33.220Z,31.63
2022-12-17T06:57:19.629Z,32.45
2022-12-17T07:00:05.672Z,34.28
2022-12-17T07:02:52.119Z,33.60
2022-12-17T07:05:38.696Z,31.95
2022-12-17T07:08:24.731Z,36.65
2022-12-17T07:11:11.001Z,32.28
2022-12-17T07:13:57.256Z,29.60
2022-12-17T07:16:43.458Z,31.40
2022-12-17T07:19:29.682Z,30.15
2022-12-17T07:22:20.308Z,32.70
2022-12-17T07:25:06.459Z,32.35
2022-12-17T07:27:52.558Z,33.78
2022-12-17T07:30:38.670Z,34.45
2022-12-17T07:33:25.779Z,33.20
2022-12-17T07:36:12.533Z,33.08
2022-12-17T07:38:58.990Z,33.63
2022-12-17T07:41:45.126Z,34.92
2022-12-17T07:44:31.057Z,34.25
2022-12-17T07:47:17.261Z,38.00
2022-12-17T07:50:03.314Z,33.80
2022-12-17T07:52:49.473Z,33.65
2022-12-17T07:55:35.487Z,31.77
2022-12-17T07:58:23.631Z,32.67
2022-12-17T08:01:09.679Z,36.70
2022-12-17T08:03:56.599Z,30.00
2022-12-17T08:06:42.631Z,37.60
2022-12-17T08:09:29.091Z,38.35
2022-12-17T08:12:15.386Z,32.63
2022-12-17T08:15:01.751Z,32.92
2022-12-17T08:17:48.153Z,30.75
2022-12-17T08:20:34.487Z,34.60
2022-12-17T08:23:21.708Z,32.67
2022-12-17T08:26:07.887Z,29.13
2022-12-17T08:28:54.367Z,32.22
2022-12-17T08:31:42.207Z,32.22
2022-12-17T08:34:28.736Z,34.17
2022-12-17T08:37:15.233Z,30.33
2022-12-17T08:40:01.605Z,36.90
2022-12-17T08:42:47.931Z,29.83
2022-12-17T08:45:34.367Z,29.90
2022-12-17T08:48:21.675Z,30.92
2022-12-17T08:51:07.856Z,35.60
2022-12-17T08:53:54.000Z,34.05
2022-12-17T08:56:40.311Z,34.63
2022-12-17T08:59:26.767Z,33.88
2022-12-17T09:02:13.090Z,29.75
2022-12-17T09:04:59.356Z,28.38
2022-12-17T09:07:45.505Z,29.15
2022-12-17T09:10:31.624Z,29.92
2022-12-17T09:13:21.026Z,30.67
2022-12-17T09:16:11.218Z,27.52
2022-12-17T09:18:57.702Z,28.38
2022-12-17T09:21:44.064Z,29.73
2022-12-17T09:24:30.624Z,33.47
2022-12-17T09:27:16.755Z,32.72
2022-12-17T09:30:03.023Z,32.45
2022-12-17T09:32:50.270Z,28.98
2022-12-17T09:35:36.430Z,33.10
2022-12-17T09:38:22.564Z,32.03
2022-12-17T09:41:10.568Z,29.77
2022-12-17T09:44:32.209Z,34.03
2022-12-17T09:47:18.527Z,27.13
2022-12-17T09:50:04.548Z,31.50
2022-12-17T09:52:59.119Z,29.85
2022-12-17T09:55:47.505Z,29.70
2022-12-17T09:58:38.808Z,31.85
2022-12-17T10:01:25.843Z,31.38
2022-12-17T10:04:12.167Z,34.88
2022-12-17T10:06:58.508Z,30.98
2022-12-17T10:09:47.084Z,31.10
2022-12-17T10:12:37.635Z,33.53
2022-12-17T10:15:24.620Z,32.78
2022-12-17T10:18:11.015Z,33.17
2022-12-17T10:21:00.360Z,32.22
2022-12-17T10:23:47.828Z,31.65
2022-12-17T10:26:38.177Z,29.92
2022-12-17T10:29:26.009Z,29.95
2022-12-17T10:32:12.665Z,29.67
2022-12-17T10:35:04.935Z,29.90
2022-12-17T10:37:54.375Z,26.48
2022-12-17T10:40:47.706Z,28.13
2022-12-17T10:43:48.402Z,26.90
2022-12-17T10:46:41.665Z,22.25
2022-12-17T10:49:38.846Z,22.75
2022-12-17T10:52:45.347Z,28.35
2022-12-17T10:55:40.107Z,26.10
2022-12-17T10:58:31.385Z,23.90
2022-12-17T11:01:21.805Z,26.02
2022-12-17T11:04:09.709Z,26.27
2022-12-17T11:06:56.870Z,28.27
2022-12-17T11:09:48.731Z,27.50
2022-12-17T11:12:36.313Z,29.83
2022-12-17T11:15:27.104Z,31.40
2022-12-17T11:18:14.411Z,30.40
2022-12-17T11:21:19.733Z,28.38
2022-12-17T11:24:23.018Z,30.40
2022-12-17T11:27:11.335Z,29.25
2022-12-17T11:29:58.948Z,31.83
2022-12-17T11:33:07.632Z,27.67
2022-12-17T11:36:06.047Z,29.60
2022-12-17T11:38:52.433Z,28.80
2022-12-17T11:41:44.776Z,24.55
2022-12-17T11:44:42.611Z,35.00
2022-12-17T11:47:37.846Z,26.85
2022-12-17T11:50:33.278Z,29.63
2022-12-17T11:53:35.073Z,29.25
2022-12-17T11:56:21.508Z,29.23
2022-12-17T11:59:08.131Z,26.92
2022-12-17T12:02:15.944Z,29.95
2022-12-17T12:05:15.360Z,30.50
2022-12-17T12:08:04.973Z,31.05
2022-12-17T12:11:11.256Z,27.92
2022-12-17T12:14:01.088Z,30.73
2022-12-17T12:16:51.663Z,31.15
2022-12-17T12:19:45.324Z,33.15
2022-12-17T12:22:46.696Z,36.78
2022-12-17T12:25:42.273Z,31.83
2022-12-17T12:28:43.540Z,31.58
2022-12-17T12:31:32.882Z,33.13
2022-12-17T12:34:26.442Z,34.55
2022-12-17T12:37:16.997Z,30.13
2022-12-17T12:40:09.607Z,32.28
2022-12-17T12:43:01.126Z,31.00
2022-12-17T12:45:50.617Z,34.50
2022-12-17T12:48:50.372Z,33.78
2022-12-17T12:51:46.196Z,32.30
2022-12-17T12:54:47.235Z,33.33
2022-12-17T12:57:50.832Z,36.55
2022-12-17T13:00:53.265Z,34.67
2022-12-17T13:03:57.763Z,33.80
2022-12-17T13:06:41.368Z,35.80
2022-12-17T13:09:21.205Z,31.77
2022-12-17T13:12:10.583Z,34.50
2022-12-17T13:14:50.647Z,38.60
2022-12-17T13:17:18.552Z,31.02
2022-12-17T13:19:48.080Z,37.08
2022-12-17T13:22:21.752Z,34.58
2022-12-17T13:24:52.346Z,35.88
2022-12-17T13:27:33.329Z,37.15
2022-12-17T13:30:21.550Z,37.45
2022-12-17T13:33:04.408Z,34.67
2022-12-17T13:35:32.341Z,37.80
2022-12-17T13:38:02.747Z,38.13
2022-12-17T13:40:37.967Z,40.22
2022-12-17T13:43:05.599Z,38.00
2022-12-17T13:45:34.925Z,35.35
2022-12-17T13:48:02.552Z,35.55
2022-12-17T13:50:34.431Z,37.80
2022-12-17T13:53:16.033Z,38.90
2022-12-17T13:55:50.363Z,34.95
2022-12-17T13:58:31.775Z,36.80
2022-12-17T14:01:09.975Z,40.22
2022-12-17T14:06:32.905Z,39.30
2022-12-17T14:09:00.691Z,39.90
2022-12-17T14:11:47.715Z,45.45
2022-12-17T14:14:18.174Z,47.33
2022-12-17T14:16:50.616Z,45.40
2022-12-17T14:19:22.106Z,40.53
2022-12-17T14:21:49.785Z,44.45
2022-12-17T14:24:18.591Z,39.22
2022-12-17T14:26:53.156Z,46.35
2022-12-17T14:29:30.239Z,45.72
2022-12-17T14:31:59.140Z,44.03
2022-12-17T14:34:29.176Z,43.00
2022-12-17T14:36:58.660Z,41.72
2022-12-17T14:39:33.852Z,44.00
2022-12-17T14:42:26.789Z,42.45
2022-12-17T14:44:59.509Z,43.58
2022-12-17T14:47:27.651Z,46.05
2022-12-17T14:49:58.722Z,42.85
2022-12-17T14:52:29.469Z,37.85
2022-12-17T14:54:57.020Z,42.05
2022-12-17T14:57:24.915Z,42.60
2022-12-17T14:59:53.880Z,46.47
2022-12-17T15:02:29.704Z,48.55
2022-12-17T15:04:58.510Z,45.00
2022-12-17T15:07:31.482Z,46.55
2022-12-17T15:10:00.878Z,44.35
2022-12-17T15:12:36.372Z,43.65
2022-12-17T15:15:07.096Z,47.60
2022-12-17T15:17:35.102Z,50.10
2022-12-17T15:20:08.025Z,44.15
2022-12-17T15:22:36.441Z,49.05
2022-12-17T15:25:04.249Z,51.33
2022-12-17T15:27:31.904Z,54.45
2022-12-17T15:29:59.702Z,50.80
2022-12-17T15:32:27.331Z,55.28
2022-12-17T15:34:54.966Z,52.00
2022-12-17T15:37:25.977Z,46.17
2022-12-17T15:39:53.686Z,47.50
2022-12-17T15:42:47.333Z,49.55
2022-12-17T15:45:14.868Z,47.38
2022-12-17T15:47:42.484Z,53.83
2022-12-17T15:50:10.416Z,46.42
2022-12-17T15:52:37.974Z,61.33
2022-12-17T15:55:05.756Z,59.13
2022-12-17T15:57:33.298Z,54.35
2022-12-17T16:00:00.803Z,56.97
2022-12-17T16:02:28.467Z,54.00
2022-12-17T16:04:56.281Z,54.42
2022-12-17T16:07:23.839Z,56.28
2022-12-17T16:09:51.373Z,52.42
2022-12-17T16:12:19.010Z,144.82
2022-12-17T16:14:46.577Z,146.85
2022-12-17T16:17:14.346Z,157.85
2022-12-17T16:19:41.894Z,104.55
2022-12-17T16:22:09.580Z,107.07
2022-12-17T16:24:37.178Z,82.53
2022-12-17T16:27:05.035Z,67.97
2022-12-17T16:29:32.612Z,98.05
2022-12-17T16:32:00.986Z,77.28
2022-12-17T16:34:28.923Z,60.92
2022-12-17T16:36:56.466Z,65.28
2022-12-17T16:39:24.040Z,58.05
2022-12-17T16:41:51.563Z,57.92
2022-12-17T16:44:19.104Z,53.03
2022-12-17T16:46:46.845Z,55.47
2022-12-17T16:49:16.826Z,56.92
2022-12-17T16:51:45.545Z,55.58
2022-12-17T16:54:15.089Z,59.42
2022-12-17T16:56:43.284Z,57.13
2022-12-17T16:59:11.572Z,58.10
2022-12-17T17:01:40.518Z,64.30
2022-12-17T17:04:09.048Z,59.28
2022-12-17T17:06:45.083Z,88.32
2022-12-17T17:09:13.294Z,65.35
2022-12-17T17:11:40.866Z,58.22
2022-12-17T17:14:09.024Z,58.85
2022-12-17T17:16:37.174Z,60.40
2022-12-17T17:19:05.252Z,52.92
2022-12-17T17:21:36.904Z,52.45
2022-12-17T17:26:32.926Z,48.53
2022-12-17T17:29:00.852Z,49.58
2022-12-17T17:32:01.206Z,53.05
2022-12-17T17:34:16.332Z,49.58
2022-12-17T17:36:43.968Z,53.45
2022-12-17T17:39:11.716Z,54.45
2022-12-17T17:41:39.300Z,56.90
2022-12-17T17:44:08.415Z,54.95
2022-12-17T17:46:36.405Z,50.92
2022-12-17T17:49:04.865Z,53.47
2022-12-17T17:52:07.732Z,49.65
2022-12-17T17:54:21.108Z,50.58
2022-12-17T17:56:48.625Z,44.95
2022-12-17T17:59:19.142Z,45.33
2022-12-17T18:01:49.307Z,40.78
2022-12-17T18:04:18.911Z,42.42
2022-12-17T18:07:16.134Z,40.53
2022-12-17T18:09:34.816Z,39.42
2022-12-17T18:12:22.933Z,42.33
2022-12-17T18:15:14.214Z,41.67
2022-12-17T18:17:38.044Z,42.03
2022-12-17T18:20:05.848Z,40.78
2022-12-17T18:22:33.377Z,45.30
2022-12-17T18:25:00.981Z,44.03
2022-12-17T18:27:28.504Z,43.67
2022-12-17T18:29:56.396Z,46.30
2022-12-17T18:32:23.983Z,46.05
2022-12-17T18:34:51.574Z,49.05
2022-12-17T18:37:19.129Z,46.60
2022-12-17T18:39:47.308Z,44.58
2022-12-17T18:42:33.560Z,46.40
2022-12-17T18:45:01.155Z,47.17
2022-12-17T18:47:28.765Z,45.75
2022-12-17T18:49:57.476Z,51.90
2022-12-17T18:52:25.192Z,47.28
2022-12-17T18:54:52.774Z,49.53
2022-12-17T18:57:20.302Z,52.35
2022-12-17T18:59:47.814Z,46.78
2022-12-17T19:02:15.559Z,51.05
2022-12-17T19:04:43.267Z,51.63
2022-12-17T19:07:11.003Z,54.90
2022-12-17T19:09:40.388Z,47.42
2022-12-17T19:12:08.888Z,52.33
2022-12-17T19:14:36.647Z,51.70
2022-12-17T19:17:05.848Z,54.08
2022-12-17T19:19:33.730Z,52.33
2022-12-17T19:22:01.973Z,47.28
2022-12-17T19:24:29.559Z,51.95
2022-12-17T19:26:57.154Z,56.88
2022-12-17T19:29:24.755Z,57.15
2022-12-17T19:31:52.406Z,57.83
2022-12-17T19:34:20.116Z,66.20
2022-12-17T19:36:48.152Z,63.25
2022-12-17T19:39:16.835Z,61.72
2022-12-17T19:41:44.550Z,58.58
2022-12-17T19:44:13.469Z,72.07
2022-12-17T19:46:41.368Z,82.25
2022-12-17T19:49:11.229Z,81.40
2022-12-17T19:51:40.297Z,107.60
2022-12-17T19:54:09.195Z,94.78
2022-12-17T19:56:37.444Z,64.68
2022-12-17T19:59:07.557Z,62.00
2022-12-17T20:01:36.727Z,62.63
2022-12-17T20:04:05.247Z,101.25
2022-12-17T20:06:33.964Z,72.30
2022-12-17T20:09:03.588Z,156.55
2022-12-17T20:11:34.280Z,107.35
2022-12-17T20:14:02.114Z,72.75
2022-12-17T20:16:30.450Z,74.38
2022-12-17T20:19:01.255Z,64.95
2022-12-17T20:21:29.186Z,62.28
2022-12-17T20:23:56.989Z,72.00
2022-12-17T20:26:24.990Z,65.55
2022-12-17T20:28:52.564Z,66.03
2022-12-17T20:31:20.187Z,68.43
2022-12-17T20:33:47.774Z,93.82
2022-12-17T20:36:16.821Z,125.20
2022-12-17T20:38:45.036Z,91.43
2022-12-17T20:41:16.184Z,103.47
2022-12-17T20:43:43.954Z,79.97
2022-12-17T20:46:12.096Z,128.80
2022-12-17T20:48:41.249Z,106.38
2022-12-17T20:51:13.361Z,83.82
2022-12-17T20:53:41.477Z,64.40
2022-12-17T20:56:10.266Z,93.47
2022-12-17T20:58:38.688Z,81.97
2022-12-17T21:01:10.895Z,76.65
2022-12-17T21:03:39.118Z,70.07
2022-12-17T21:06:07.771Z,90.18
2022-12-17T21:08:36.163Z,57.25
2022-12-17T21:11:04.006Z,68.70
2022-12-17T21:13:31.835Z,54.03
2022-12-17T21:16:00.385Z,63.55
2022-12-17T21:18:28.878Z,63.78
2022-12-17T21:21:04.717Z,75.07
2022-12-17T21:23:32.840Z,73.15
2022-12-17T21:26:01.640Z,54.03
2022-12-17T21:28:30.661Z,60.30
2022-12-17T21:30:58.437Z,57.92
2022-12-17T21:33:26.149Z,48.30
2022-12-17T21:36:05.901Z,57.10
2022-12-17T21:41:11.220Z,46.00
2022-12-17T21:43:39.820Z,50.72
2022-12-17T21:46:08.386Z,46.42
2022-12-17T21:48:41.608Z,42.17
2022-12-17T21:51:10.573Z,37.17
2022-12-17T21:53:41.981Z,35.35
2022-12-17T21:56:16.848Z,39.13
2022-12-17T21:58:45.580Z,46.08
2022-12-17T22:01:19.023Z,41.22
2022-12-17T22:03:48.414Z,46.50
2022-12-17T22:06:21.988Z,45.58
2022-12-17T22:08:51.095Z,49.28
2022-12-17T22:11:25.099Z,41.58
2022-12-17T22:14:07.364Z,41.03
2022-12-17T22:16:46.595Z,46.53
2022-12-17T22:19:15.980Z,41.83
2022-12-17T22:21:44.983Z,41.75
2022-12-17T22:24:16.721Z,41.55
2022-12-17T22:26:44.567Z,52.38
2022-12-17T22:29:12.314Z,44.67
2022-12-17T22:31:58.632Z,40.47
2022-12-17T22:34:56.531Z,44.45
2022-12-17T22:39:59.493Z,40.25
2022-12-17T22:44:14.236Z,40.60
2022-12-17T22:44:42.079Z,44.08
2022-12-17T22:46:04.257Z,43.03
2022-12-17T22:48:32.661Z,45.80
2022-12-17T22:51:08.881Z,43.17
2022-12-17T22:53:39.660Z,48.70
2022-12-17T22:56:18.569Z,91.85
2022-12-17T22:58:55.680Z,77.75
2022-12-17T23:01:23.637Z,51.97
2022-12-17T23:03:54.770Z,40.78
2022-12-17T23:06:22.539Z,43.92
2022-12-17T23:08:50.473Z,47.20
2022-12-17T23:11:19.392Z,46.45
2022-12-17T23:13:47.072Z,42.20
2022-12-17T23:16:15.998Z,47.67
2022-12-17T23:18:44.111Z,69.80
2022-12-17T23:21:13.049Z,59.15
2022-12-17T23:23:41.044Z,65.78
2022-12-17T23:26:10.132Z,56.50
2022-12-17T23:28:37.726Z,48.53
2022-12-17T23:31:09.761Z,49.90
2022-12-17T23:33:38.161Z,52.53
2022-12-17T23:36:07.299Z,52.53
2022-12-17T23:38:35.209Z,45.22
2022-12-17T23:41:06.997Z,51.90
2022-12-17T23:43:35.040Z,52.30
2022-12-17T23:46:02.652Z,55.35
2022-12-17T23:48:31.643Z,56.90
2022-12-17T23:50:59.556Z,55.15
2022-12-17T23:53:27.806Z,55.38
2022-12-17T23:55:55.351Z,53.50
2022-12-17T23:58:23.180Z,55.75
